sensor_id;sensor_type;location;lat;lon;timestamp;P1;durP1;ratioP1;P2;durP2;ratioP2
40601;SDS011;26310;50.278;19.032;2022-10-16T04:35:16;16.93;;;9.40;;
40601;SDS011;26310;50.278;19.032;2022-10-16T04:40:20;12.27;;;8.00;;
40601;SDS011;26310;50.278;19.032;2022-10-16T04:45:22;10.90;;;6.93;;
40601;SDS011;26310;50.278;19.032;2022-10-16T04:50:25;13.57;;;8.17;;
40601;SDS011;26310;50.278;19.032;2022-10-16T04:55:28;15.63;;;8.60;;
40601;SDS011;26310;50.278;19.032;2022-10-16T05:00:31;13.57;;;8.30;;
40601;SDS011;26310;50.278;19.032;2022-10-16T05:05:35;13.07;;;8.40;;
40601;SDS011;26310;50.278;19.032;2022-10-16T05:10:38;11.97;;;8.50;;
40601;SDS011;26310;50.278;19.032;2022-10-16T05:15:41;15.57;;;8.97;;
40601;SDS011;26310;50.278;19.032;2022-10-16T05:20:43;14.90;;;8.90;;
40601;SDS011;26310;50.278;19.032;2022-10-16T05:25:56;16.77;;;9.10;;
40601;SDS011;26310;50.278;19.032;2022-10-16T05:31:03;16.63;;;9.47;;
40601;SDS011;26310;50.278;19.032;2022-10-16T05:36:10;15.23;;;8.87;;
40601;SDS011;26310;50.278;19.032;2022-10-16T05:41:14;14.60;;;9.63;;
40601;SDS011;26310;50.278;19.032;2022-10-16T05:46:21;16.87;;;10.00;;
40601;SDS011;26310;50.278;19.032;2022-10-16T05:51:24;15.90;;;10.33;;
40601;SDS011;26310;50.278;19.032;2022-10-16T05:56:27;15.40;;;9.90;;
40601;SDS011;26310;50.278;19.032;2022-10-16T06:01:30;15.00;;;10.13;;
40601;SDS011;26310;50.278;19.032;2022-10-16T06:06:33;24.00;;;10.40;;
40601;SDS011;26310;50.278;19.032;2022-10-16T06:11:37;12.53;;;8.97;;
40601;SDS011;26310;50.278;19.032;2022-10-16T06:16:40;17.67;;;9.87;;
40601;SDS011;26310;50.278;19.032;2022-10-16T06:21:43;18.17;;;9.63;;
40601;SDS011;26310;50.278;19.032;2022-10-16T06:26:46;14.10;;;9.50;;
40601;SDS011;26310;50.278;19.032;2022-10-16T06:31:48;14.20;;;9.40;;
40601;SDS011;26310;50.278;19.032;2022-10-16T06:36:52;15.60;;;9.90;;
40601;SDS011;26310;50.278;19.032;2022-10-16T06:41:54;11.73;;;8.37;;
40601;SDS011;26310;50.278;19.032;2022-10-16T06:46:57;14.00;;;8.20;;
40601;SDS011;26310;50.278;19.032;2022-10-16T06:52:00;12.63;;;8.53;;
40601;SDS011;26310;50.278;19.032;2022-10-16T06:57:03;15.93;;;9.40;;
40601;SDS011;26310;50.278;19.032;2022-10-16T07:02:06;16.23;;;9.87;;
40601;SDS011;26310;50.278;19.032;2022-10-16T07:07:10;12.37;;;9.43;;
40601;SDS011;26310;50.278;19.032;2022-10-16T07:12:12;13.80;;;8.97;;
40601;SDS011;26310;50.278;19.032;2022-10-16T07:17:15;13.50;;;8.10;;
40601;SDS011;26310;50.278;19.032;2022-10-16T07:22:18;12.93;;;8.47;;
40601;SDS011;26310;50.278;19.032;2022-10-16T07:27:21;11.73;;;7.73;;
40601;SDS011;26310;50.278;19.032;2022-10-16T07:32:25;14.90;;;8.07;;
40601;SDS011;26310;50.278;19.032;2022-10-16T07:37:29;13.00;;;7.47;;
40601;SDS011;26310;50.278;19.032;2022-10-16T07:42:31;11.43;;;7.57;;
40601;SDS011;26310;50.278;19.032;2022-10-16T07:47:34;10.37;;;7.17;;
40601;SDS011;26310;50.278;19.032;2022-10-16T07:52:37;12.80;;;7.47;;
40601;SDS011;26310;50.278;19.032;2022-10-16T07:57:40;12.77;;;7.43;;
40601;SDS011;26310;50.278;19.032;2022-10-16T08:02:42;14.60;;;7.40;;
40601;SDS011;26310;50.278;19.032;2022-10-16T08:07:49;12.97;;;7.50;;
40601;SDS011;26310;50.278;19.032;2022-10-16T08:12:52;10.33;;;7.77;;
40601;SDS011;26310;50.278;19.032;2022-10-16T08:17:58;12.43;;;7.53;;
40601;SDS011;26310;50.278;19.032;2022-10-16T08:23:03;10.53;;;6.63;;
40601;SDS011;26310;50.278;19.032;2022-10-16T08:28:07;9.90;;;6.70;;
40601;SDS011;26310;50.278;19.032;2022-10-16T08:33:11;9.80;;;7.00;;
40601;SDS011;26310;50.278;19.032;2022-10-16T08:38:13;7.80;;;6.47;;
40601;SDS011;26310;50.278;19.032;2022-10-16T08:48:47;12.10;;;5.93;;
40601;SDS011;26310;50.278;19.032;2022-10-16T08:53:55;11.20;;;7.10;;
40601;SDS011;26310;50.278;19.032;2022-10-16T08:58:59;9.43;;;6.53;;
40601;SDS011;26310;50.278;19.032;2022-10-16T09:09:50;11.87;;;7.13;;
40601;SDS011;26310;50.278;19.032;2022-10-16T09:25:32;10.30;;;6.17;;
40601;SDS011;26310;50.278;19.032;2022-10-16T09:30:35;8.13;;;6.37;;
40601;SDS011;26310;50.278;19.032;2022-10-16T09:40:42;8.73;;;6.33;;
40601;SDS011;26310;50.278;19.032;2022-10-16T09:46:01;12.20;;;6.23;;
40601;SDS011;26310;50.278;19.032;2022-10-16T09:51:13;9.03;;;5.90;;
40601;SDS011;26310;50.278;19.032;2022-10-16T09:56:33;8.43;;;5.93;;
40601;SDS011;26310;50.278;19.032;2022-10-16T10:02:00;9.20;;;6.33;;
40601;SDS011;26310;50.278;19.032;2022-10-16T10:07:05;8.00;;;5.93;;
40601;SDS011;26310;50.278;19.032;2022-10-16T10:12:18;13.00;;;6.53;;
40601;SDS011;26310;50.278;19.032;2022-10-16T10:17:27;8.63;;;5.73;;
40601;SDS011;26310;50.278;19.032;2022-10-16T10:38:11;8.23;;;5.67;;
40601;SDS011;26310;50.278;19.032;2022-10-16T10:48:51;9.57;;;5.70;;
40601;SDS011;26310;50.278;19.032;2022-10-16T11:10:13;6.50;;;4.97;;
40601;SDS011;26310;50.278;19.032;2022-10-16T11:15:32;7.20;;;5.37;;
40601;SDS011;26310;50.278;19.032;2022-10-16T11:20:39;6.73;;;5.23;;
40601;SDS011;26310;50.278;19.032;2022-10-16T11:26:02;7.87;;;5.33;;
40601;SDS011;26310;50.278;19.032;2022-10-16T11:31:13;10.40;;;5.60;;
40601;SDS011;26310;50.278;19.032;2022-10-16T11:41:42;9.18;;;6.25;;
40601;SDS011;26310;50.278;19.032;2022-10-16T11:58:51;9.25;;;5.72;;
40601;SDS011;26310;50.278;19.032;2022-10-16T12:09:22;7.07;;;5.20;;
40601;SDS011;26310;50.278;19.032;2022-10-16T12:19:59;7.25;;;5.53;;
40601;SDS011;26310;50.278;19.032;2022-10-16T12:25:32;7.53;;;5.38;;
40601;SDS011;26310;50.278;19.032;2022-10-16T12:30:40;6.38;;;5.32;;
40601;SDS011;26310;50.278;19.032;2022-10-16T12:35:44;8.40;;;5.63;;
40601;SDS011;26310;50.278;19.032;2022-10-16T12:41:02;7.40;;;5.55;;
40601;SDS011;26310;50.278;19.032;2022-10-16T12:46:52;9.25;;;6.25;;
40601;SDS011;26310;50.278;19.032;2022-10-16T13:12:48;10.77;;;6.53;;
40601;SDS011;26310;50.278;19.032;2022-10-16T13:18:04;9.93;;;6.82;;
40601;SDS011;26310;50.278;19.032;2022-10-16T13:28:30;9.65;;;6.75;;
40601;SDS011;26310;50.278;19.032;2022-10-16T13:33:36;12.32;;;7.45;;
40601;SDS011;26310;50.278;19.032;2022-10-16T13:38:41;10.35;;;6.82;;
40601;SDS011;26310;50.278;19.032;2022-10-16T13:43:45;9.88;;;6.47;;
40601;SDS011;26310;50.278;19.032;2022-10-16T13:48:56;8.88;;;6.07;;
40601;SDS011;26310;50.278;19.032;2022-10-16T13:54:03;9.75;;;6.47;;
40601;SDS011;26310;50.278;19.032;2022-10-16T13:59:21;10.27;;;6.13;;
40601;SDS011;26310;50.278;19.032;2022-10-16T14:04:31;15.55;;;6.45;;
40601;SDS011;26310;50.278;19.032;2022-10-16T14:09:34;14.23;;;6.18;;
40601;SDS011;26310;50.278;19.032;2022-10-16T14:14:42;10.27;;;6.65;;
40601;SDS011;26310;50.278;19.032;2022-10-16T14:19:45;9.70;;;6.53;;
40601;SDS011;26310;50.278;19.032;2022-10-16T14:24:55;10.73;;;6.68;;
40601;SDS011;26310;50.278;19.032;2022-10-16T14:30:08;10.65;;;6.35;;
40601;SDS011;26310;50.278;19.032;2022-10-16T14:35:33;9.10;;;6.15;;
40601;SDS011;26310;50.278;19.032;2022-10-16T14:40:45;11.45;;;6.85;;
40601;SDS011;26310;50.278;19.032;2022-10-16T14:45:53;13.57;;;7.00;;
40601;SDS011;26310;50.278;19.032;2022-10-16T14:50:57;9.88;;;7.18;;
40601;SDS011;26310;50.278;19.032;2022-10-16T14:56:05;9.27;;;6.72;;
40601;SDS011;26310;50.278;19.032;2022-10-16T15:01:09;7.97;;;6.15;;
40601;SDS011;26310;50.278;19.032;2022-10-16T15:06:14;11.18;;;6.90;;
40601;SDS011;26310;50.278;19.032;2022-10-16T15:11:18;10.07;;;6.82;;
40601;SDS011;26310;50.278;19.032;2022-10-16T15:16:21;10.38;;;6.70;;
40601;SDS011;26310;50.278;19.032;2022-10-16T15:21:24;11.60;;;6.80;;
40601;SDS011;26310;50.278;19.032;2022-10-16T15:26:32;10.57;;;6.87;;
40601;SDS011;26310;50.278;19.032;2022-10-16T15:31:34;11.35;;;6.53;;
40601;SDS011;26310;50.278;19.032;2022-10-16T15:36:39;10.43;;;7.60;;
40601;SDS011;26310;50.278;19.032;2022-10-16T15:41:42;10.57;;;6.73;;
40601;SDS011;26310;50.278;19.032;2022-10-16T15:46:54;12.97;;;8.07;;
40601;SDS011;26310;50.278;19.032;2022-10-16T15:51:57;11.43;;;7.60;;
40601;SDS011;26310;50.278;19.032;2022-10-16T15:57:00;11.70;;;8.00;;
40601;SDS011;26310;50.278;19.032;2022-10-16T16:02:03;14.00;;;7.70;;
40601;SDS011;26310;50.278;19.032;2022-10-16T16:07:05;10.40;;;6.70;;
40601;SDS011;26310;50.278;19.032;2022-10-16T16:12:11;13.40;;;8.00;;
40601;SDS011;26310;50.278;19.032;2022-10-16T16:17:14;11.20;;;7.57;;
40601;SDS011;26310;50.278;19.032;2022-10-16T16:22:17;11.60;;;7.57;;
40601;SDS011;26310;50.278;19.032;2022-10-16T16:27:19;12.13;;;8.07;;
40601;SDS011;26310;50.278;19.032;2022-10-16T16:32:22;20.10;;;9.00;;
40601;SDS011;26310;50.278;19.032;2022-10-16T16:37:25;15.43;;;9.80;;
40601;SDS011;26310;50.278;19.032;2022-10-16T16:42:29;15.50;;;9.97;;
40601;SDS011;26310;50.278;19.032;2022-10-16T16:47:32;14.67;;;9.73;;
40601;SDS011;26310;50.278;19.032;2022-10-16T16:52:35;15.10;;;9.77;;
40601;SDS011;26310;50.278;19.032;2022-10-16T16:57:38;13.37;;;8.90;;
40601;SDS011;26310;50.278;19.032;2022-10-16T17:02:40;16.20;;;9.17;;
40601;SDS011;26310;50.278;19.032;2022-10-16T17:07:44;14.30;;;9.67;;
40601;SDS011;26310;50.278;19.032;2022-10-16T17:12:47;14.77;;;9.77;;
40601;SDS011;26310;50.278;19.032;2022-10-16T17:17:50;14.73;;;8.87;;
40601;SDS011;26310;50.278;19.032;2022-10-16T17:22:53;16.93;;;10.17;;
40601;SDS011;26310;50.278;19.032;2022-10-16T17:27:55;16.20;;;10.73;;
40601;SDS011;26310;50.278;19.032;2022-10-16T17:32:58;15.87;;;10.60;;
40601;SDS011;26310;50.278;19.032;2022-10-16T17:38:01;17.57;;;11.20;;
40601;SDS011;26310;50.278;19.032;2022-10-16T17:43:05;15.50;;;10.43;;
40601;SDS011;26310;50.278;19.032;2022-10-16T17:48:08;14.33;;;10.23;;
40601;SDS011;26310;50.278;19.032;2022-10-16T17:53:11;20.80;;;11.67;;
40601;SDS011;26310;50.278;19.032;2022-10-16T17:58:14;17.03;;;10.77;;
40601;SDS011;26310;50.278;19.032;2022-10-16T18:03:17;19.57;;;12.27;;
40601;SDS011;26310;50.278;19.032;2022-10-16T18:08:20;17.07;;;10.87;;
40601;SDS011;26310;50.278;19.032;2022-10-16T18:13:29;20.63;;;11.97;;
40601;SDS011;26310;50.278;19.032;2022-10-16T18:18:32;20.13;;;11.50;;
40601;SDS011;26310;50.278;19.032;2022-10-16T18:23:35;20.30;;;12.10;;
40601;SDS011;26310;50.278;19.032;2022-10-16T18:28:39;22.43;;;11.90;;
40601;SDS011;26310;50.278;19.032;2022-10-16T18:33:42;20.00;;;13.20;;
40601;SDS011;26310;50.278;19.032;2022-10-16T18:38:49;19.10;;;12.77;;
40601;SDS011;26310;50.278;19.032;2022-10-16T18:43:52;23.10;;;13.87;;
40601;SDS011;26310;50.278;19.032;2022-10-16T18:48:56;26.57;;;15.00;;
40601;SDS011;26310;50.278;19.032;2022-10-16T18:54:02;23.30;;;13.50;;
40601;SDS011;26310;50.278;19.032;2022-10-16T18:59:08;22.73;;;14.13;;
40601;SDS011;26310;50.278;19.032;2022-10-16T19:04:13;29.67;;;15.07;;
40601;SDS011;26310;50.278;19.032;2022-10-16T19:09:18;21.73;;;13.13;;
40601;SDS011;26310;50.278;19.032;2022-10-16T19:14:22;20.47;;;12.13;;
40601;SDS011;26310;50.278;19.032;2022-10-16T19:19:25;19.20;;;12.43;;
40601;SDS011;26310;50.278;19.032;2022-10-16T19:24:28;20.80;;;12.93;;
40601;SDS011;26310;50.278;19.032;2022-10-16T19:29:31;20.10;;;11.73;;
40601;SDS011;26310;50.278;19.032;2022-10-16T19:34:34;22.23;;;12.30;;
40601;SDS011;26310;50.278;19.032;2022-10-16T19:39:37;15.40;;;10.97;;
40601;SDS011;26310;50.278;19.032;2022-10-16T19:44:39;20.77;;;12.40;;
40601;SDS011;26310;50.278;19.032;2022-10-16T19:49:42;18.03;;;11.20;;
40601;SDS011;26310;50.278;19.032;2022-10-16T19:54:45;19.37;;;11.30;;
40601;SDS011;26310;50.278;19.032;2022-10-16T19:59:51;19.67;;;11.77;;
40601;SDS011;26310;50.278;19.032;2022-10-16T20:04:54;19.87;;;11.93;;
40601;SDS011;26310;50.278;19.032;2022-10-16T20:09:57;20.47;;;11.47;;
40601;SDS011;26310;50.278;19.032;2022-10-16T20:15:00;20.60;;;13.37;;
40601;SDS011;26310;50.278;19.032;2022-10-16T20:20:04;19.57;;;12.13;;
40601;SDS011;26310;50.278;19.032;2022-10-16T20:25:07;19.47;;;11.97;;
40601;SDS011;26310;50.278;19.032;2022-10-16T20:30:11;18.17;;;12.07;;
40601;SDS011;26310;50.278;19.032;2022-10-16T20:35:13;21.50;;;11.73;;
40601;SDS011;26310;50.278;19.032;2022-10-16T20:40:16;19.87;;;11.50;;
40601;SDS011;26310;50.278;19.032;2022-10-16T20:45:21;17.53;;;11.13;;
40601;SDS011;26310;50.278;19.032;2022-10-16T20:50:27;20.70;;;12.63;;
40601;SDS011;26310;50.278;19.032;2022-10-16T20:55:34;19.13;;;12.33;;
40601;SDS011;26310;50.278;19.032;2022-10-16T21:00:38;21.27;;;12.23;;
40601;SDS011;26310;50.278;19.032;2022-10-16T21:05:41;19.30;;;12.03;;
40601;SDS011;26310;50.278;19.032;2022-10-16T21:10:44;21.60;;;12.47;;
40601;SDS011;26310;50.278;19.032;2022-10-16T21:15:46;20.47;;;12.60;;
40601;SDS011;26310;50.278;19.032;2022-10-16T21:20:49;19.33;;;11.97;;
40601;SDS011;26310;50.278;19.032;2022-10-16T21:25:52;20.80;;;12.70;;
40601;SDS011;26310;50.278;19.032;2022-10-16T21:30:55;18.23;;;12.10;;
40601;SDS011;26310;50.278;19.032;2022-10-16T21:35:58;20.73;;;11.87;;
40601;SDS011;26310;50.278;19.032;2022-10-16T21:41:10;22.70;;;11.97;;
40601;SDS011;26310;50.278;19.032;2022-10-16T21:46:23;16.23;;;11.07;;
40601;SDS011;26310;50.278;19.032;2022-10-16T21:51:33;21.80;;;11.90;;
40601;SDS011;26310;50.278;19.032;2022-10-16T21:56:37;20.60;;;12.10;;
40601;SDS011;26310;50.278;19.032;2022-10-16T22:01:40;20.80;;;12.37;;
40601;SDS011;26310;50.278;19.032;2022-10-16T22:06:43;19.80;;;12.53;;
40601;SDS011;26310;50.278;19.032;2022-10-16T22:11:47;18.97;;;11.70;;
40601;SDS011;26310;50.278;19.032;2022-10-16T22:16:51;22.07;;;11.60;;
40601;SDS011;26310;50.278;19.032;2022-10-16T22:21:54;20.77;;;11.77;;
40601;SDS011;26310;50.278;19.032;2022-10-16T22:26:57;20.87;;;12.23;;
40601;SDS011;26310;50.278;19.032;2022-10-16T22:32:00;18.63;;;12.10;;
40601;SDS011;26310;50.278;19.032;2022-10-16T22:37:03;18.30;;;10.97;;
40601;SDS011;26310;50.278;19.032;2022-10-16T22:42:05;19.43;;;12.10;;
40601;SDS011;26310;50.278;19.032;2022-10-16T22:47:08;20.13;;;11.90;;
40601;SDS011;26310;50.278;19.032;2022-10-16T22:52:11;20.03;;;12.53;;
40601;SDS011;26310;50.278;19.032;2022-10-16T22:57:14;23.37;;;12.67;;
40601;SDS011;26310;50.278;19.032;2022-10-16T23:02:16;18.57;;;12.03;;
40601;SDS011;26310;50.278;19.032;2022-10-16T23:07:19;24.50;;;12.47;;
40601;SDS011;26310;50.278;19.032;2022-10-16T23:12:22;18.90;;;12.47;;
40601;SDS011;26310;50.278;19.032;2022-10-16T23:17:27;16.80;;;11.43;;
40601;SDS011;26310;50.278;19.032;2022-10-16T23:22:30;20.07;;;11.53;;
40601;SDS011;26310;50.278;19.032;2022-10-16T23:27:32;20.40;;;10.90;;
